sensor_id;sensor_type;location;lat;lon;timestamp;pressure;altitude;pressure_sealevel;temperature;humidity
39769;BME280;38939;47.824;14.642;2023-08-24T00:00:07;97156.03;;;23.58;84.15
39769;BME280;38939;47.824;14.642;2023-08-24T00:01:09;97153.66;;;23.56;84.16
39769;BME280;38939;47.824;14.642;2023-08-24T00:02:13;97155.53;;;23.55;84.37
39769;BME280;38939;47.824;14.642;2023-08-24T00:03:15;97160.56;;;23.57;84.21
39769;BME280;38939;47.824;14.642;2023-08-24T00:04:17;97153.38;;;23.58;84.24
39769;BME280;38939;47.824;14.642;2023-08-24T00:05:19;97154.94;;;23.59;84.99
39769;BME280;38939;47.824;14.642;2023-08-24T00:06:22;97160.84;;;23.55;84.98
39769;BME280;38939;47.824;14.642;2023-08-24T00:07:24;97163.50;;;23.55;84.46
39769;BME280;38939;47.824;14.642;2023-08-24T00:08:26;97157.09;;;23.56;84.39
39769;BME280;38939;47.824;14.642;2023-08-24T00:09:28;97166.19;;;23.55;85.46
39769;BME280;38939;47.824;14.642;2023-08-24T00:10:30;97157.38;;;23.55;84.74
39769;BME280;38939;47.824;14.642;2023-08-24T00:11:32;97159.75;;;23.56;84.91
39769;BME280;38939;47.824;14.642;2023-08-24T00:12:34;97166.69;;;23.58;84.73
39769;BME280;38939;47.824;14.642;2023-08-24T00:13:37;97156.81;;;23.58;84.46
39769;BME280;38939;47.824;14.642;2023-08-24T00:14:39;97165.88;;;23.57;84.75
39769;BME280;38939;47.824;14.642;2023-08-24T00:15:41;97166.44;;;23.54;84.58
39769;BME280;38939;47.824;14.642;2023-08-24T00:16:43;97156.59;;;23.54;84.98
39769;BME280;38939;47.824;14.642;2023-08-24T00:17:45;97160.84;;;23.55;84.46
39769;BME280;38939;47.824;14.642;2023-08-24T00:18:47;97157.09;;;23.56;84.63
39769;BME280;38939;47.824;14.642;2023-08-24T00:19:49;97155.22;;;23.57;84.64
39769;BME280;38939;47.824;14.642;2023-08-24T00:20:51;97156.81;;;23.58;84.76
39769;BME280;38939;47.824;14.642;2023-08-24T00:21:53;97150.72;;;23.58;84.61
39769;BME280;38939;47.824;14.642;2023-08-24T00:22:55;97157.38;;;23.55;84.70
39769;BME280;38939;47.824;14.642;2023-08-24T00:23:57;97151.25;;;23.54;84.61
39769;BME280;38939;47.824;14.642;2023-08-24T00:25:01;97149.38;;;23.55;84.18
39769;BME280;38939;47.824;14.642;2023-08-24T00:26:03;97148.31;;;23.56;84.03
39769;BME280;38939;47.824;14.642;2023-08-24T00:27:05;97163.50;;;23.55;84.40
39769;BME280;38939;47.824;14.642;2023-08-24T00:28:06;97149.38;;;23.55;84.14
39769;BME280;38939;47.824;14.642;2023-08-24T00:29:08;97150.97;;;23.56;84.53
39769;BME280;38939;47.824;14.642;2023-08-24T00:30:10;97155.78;;;23.54;84.61
39769;BME280;38939;47.824;14.642;2023-08-24T00:31:12;97155.00;;;23.53;84.56
39769;BME280;38939;47.824;14.642;2023-08-24T00:32:16;97152.63;;;23.52;84.55
39769;BME280;38939;47.824;14.642;2023-08-24T00:33:19;97157.16;;;23.51;84.17
39769;BME280;38939;47.824;14.642;2023-08-24T00:34:21;97154.75;;;23.50;84.66
39769;BME280;38939;47.824;14.642;2023-08-24T00:35:23;97155.03;;;23.48;84.31
39769;BME280;38939;47.824;14.642;2023-08-24T00:36:24;97154.25;;;23.48;84.47
39769;BME280;38939;47.824;14.642;2023-08-24T00:37:26;97155.81;;;23.49;84.22
39769;BME280;38939;47.824;14.642;2023-08-24T00:38:29;97155.56;;;23.50;84.25
39769;BME280;38939;47.824;14.642;2023-08-24T00:39:32;97151.81;;;23.51;84.16
39769;BME280;38939;47.824;14.642;2023-08-24T00:40:33;97157.44;;;23.50;84.10
39769;BME280;38939;47.824;14.642;2023-08-24T00:41:36;97147.84;;;23.49;83.50
39769;BME280;38939;47.824;14.642;2023-08-24T00:42:38;97145.47;;;23.47;83.52
39769;BME280;38939;47.824;14.642;2023-08-24T00:43:41;97155.03;;;23.48;83.56
39769;BME280;38939;47.824;14.642;2023-08-24T00:44:43;97148.13;;;23.47;83.68
39769;BME280;38939;47.824;14.642;2023-08-24T00:45:45;97160.63;;;23.47;83.52
39769;BME280;38939;47.824;14.642;2023-08-24T00:46:46;97145.47;;;23.47;84.58
39769;BME280;38939;47.824;14.642;2023-08-24T00:47:49;97148.94;;;23.43;84.88
39769;BME280;38939;47.824;14.642;2023-08-24T00:48:52;97142.84;;;23.42;84.86
39769;BME280;38939;47.824;14.642;2023-08-24T00:49:55;97147.66;;;23.40;85.44
39769;BME280;38939;47.824;14.642;2023-08-24T00:50:58;97151.09;;;23.41;85.10
39769;BME280;38939;47.824;14.642;2023-08-24T00:52:00;97139.94;;;23.39;85.07
39769;BME280;38939;47.824;14.642;2023-08-24T00:53:02;97138.09;;;23.39;85.05
39769;BME280;38939;47.824;14.642;2023-08-24T00:54:04;97134.91;;;23.37;84.85
39769;BME280;38939;47.824;14.642;2023-08-24T00:55:06;97135.16;;;23.35;85.00
39769;BME280;38939;47.824;14.642;2023-08-24T00:56:09;97136.22;;;23.34;84.84
39769;BME280;38939;47.824;14.642;2023-08-24T00:57:11;97138.63;;;23.36;85.17
39769;BME280;38939;47.824;14.642;2023-08-24T00:58:13;97144.75;;;23.36;84.42
39769;BME280;38939;47.824;14.642;2023-08-24T00:59:15;97139.41;;;23.36;84.52
39769;BME280;38939;47.824;14.642;2023-08-24T01:00:17;97130.13;;;23.34;84.73
39769;BME280;38939;47.824;14.642;2023-08-24T01:01:19;97134.38;;;23.35;84.69
39769;BME280;38939;47.824;14.642;2023-08-24T01:02:21;97130.63;;;23.36;84.71
39769;BME280;38939;47.824;14.642;2023-08-24T01:03:23;97130.91;;;23.34;84.64
39769;BME280;38939;47.824;14.642;2023-08-24T01:04:25;97127.19;;;23.35;84.72
39769;BME280;38939;47.824;14.642;2023-08-24T01:05:28;97127.19;;;23.35;84.76
39769;BME280;38939;47.824;14.642;2023-08-24T01:06:30;97125.03;;;23.38;84.67
39769;BME280;38939;47.824;14.642;2023-08-24T01:07:32;97128.75;;;23.36;84.77
39769;BME280;38939;47.824;14.642;2023-08-24T01:08:36;97126.91;;;23.37;85.38
39769;BME280;38939;47.824;14.642;2023-08-24T01:09:38;97127.19;;;23.35;85.30
39769;BME280;38939;47.824;14.642;2023-08-24T01:10:46;97129.34;;;23.33;85.29
39769;BME280;38939;47.824;14.642;2023-08-24T01:11:54;97125.56;;;23.34;84.88
39769;BME280;38939;47.824;14.642;2023-08-24T01:13:00;97130.91;;;23.34;85.03
39769;BME280;38939;47.824;14.642;2023-08-24T01:16:27;97130.38;;;23.38;84.60
39769;BME280;38939;47.824;14.642;2023-08-24T01:17:30;97125.03;;;23.38;84.59
39769;BME280;38939;47.824;14.642;2023-08-24T01:18:33;97124.00;;;23.33;84.53
39769;BME280;38939;47.824;14.642;2023-08-24T01:19:38;97120.81;;;23.31;84.58
39769;BME280;38939;47.824;14.642;2023-08-24T01:20:41;97128.53;;;23.33;84.59
39769;BME280;38939;47.824;14.642;2023-08-24T01:21:44;97123.22;;;23.33;84.64
39769;BME280;38939;47.824;14.642;2023-08-24T01:24:23;97116.53;;;23.35;84.39
39769;BME280;38939;47.824;14.642;2023-08-24T01:26:38;97120.25;;;23.34;84.46
39769;BME280;38939;47.824;14.642;2023-08-24T01:27:41;97126.41;;;23.35;84.64
39769;BME280;38939;47.824;14.642;2023-08-24T01:28:44;97130.91;;;23.34;84.73
39769;BME280;38939;47.824;14.642;2023-08-24T01:29:46;97121.84;;;23.35;84.39
39769;BME280;38939;47.824;14.642;2023-08-24T01:30:48;97117.31;;;23.36;84.65
39769;BME280;38939;47.824;14.642;2023-08-24T01:31:51;97117.03;;;23.38;84.72
39769;BME280;38939;47.824;14.642;2023-08-24T01:32:53;97118.09;;;23.36;84.44
39769;BME280;38939;47.824;14.642;2023-08-24T01:33:55;97121.06;;;23.35;84.47
39769;BME280;38939;47.824;14.642;2023-08-24T01:34:56;97121.84;;;23.35;84.56
39769;BME280;38939;47.824;14.642;2023-08-24T01:35:58;97116.28;;;23.32;84.77
39769;BME280;38939;47.824;14.642;2023-08-24T01:37:00;97120.03;;;23.31;84.70
39769;BME280;38939;47.824;14.642;2023-08-24T01:38:02;97115.78;;;23.30;85.04
39769;BME280;38939;47.824;14.642;2023-08-24T01:39:07;97113.09;;;23.30;85.00
39769;BME280;38939;47.824;14.642;2023-08-24T01:40:13;97116.56;;;23.30;84.95
39769;BME280;38939;47.824;14.642;2023-08-24T01:42:20;97120.56;;;23.33;84.92
39769;BME280;38939;47.824;14.642;2023-08-24T01:43:25;97112.56;;;23.33;84.62
39769;BME280;38939;47.824;14.642;2023-08-24T01:44:45;97118.69;;;23.33;84.94
39769;BME280;38939;47.824;14.642;2023-08-24T01:45:49;97114.41;;;23.32;84.88
39769;BME280;38939;47.824;14.642;2023-08-24T01:46:52;97124.53;;;23.30;84.79
39769;BME280;38939;47.824;14.642;2023-08-24T01:47:55;97113.91;;;23.30;85.07
39769;BME280;38939;47.824;14.642;2023-08-24T01:48:58;97121.88;;;23.30;85.27
39769;BME280;38939;47.824;14.642;2023-08-24T01:50:00;97118.16;;;23.31;85.02
39769;BME280;38939;47.824;14.642;2023-08-24T01:51:02;97114.97;;;23.29;84.97
39769;BME280;38939;47.824;14.642;2023-08-24T01:52:05;97114.72;;;23.31;84.81
39769;BME280;38939;47.824;14.642;2023-08-24T01:53:07;97113.91;;;23.30;84.69
39769;BME280;38939;47.824;14.642;2023-08-24T01:54:09;97114.97;;;23.29;85.00
39769;BME280;38939;47.824;14.642;2023-08-24T01:55:11;97116.56;;;23.30;84.89
39769;BME280;38939;47.824;14.642;2023-08-24T01:56:15;97110.97;;;23.32;84.81
39769;BME280;38939;47.824;14.642;2023-08-24T01:57:17;97111.22;;;23.30;84.38
39769;BME280;38939;47.824;14.642;2023-08-24T01:58:19;97109.09;;;23.32;84.79
39769;BME280;38939;47.824;14.642;2023-08-24T01:59:21;97102.97;;;23.32;84.73
39769;BME280;38939;47.824;14.642;2023-08-24T02:00:24;97102.19;;;23.31;84.79
39769;BME280;38939;47.824;14.642;2023-08-24T02:01:26;97104.84;;;23.31;84.77
39769;BME280;38939;47.824;14.642;2023-08-24T02:02:27;97100.31;;;23.32;84.44
39769;BME280;38939;47.824;14.642;2023-08-24T02:03:29;97107.25;;;23.33;84.46
39769;BME280;38939;47.824;14.642;2023-08-24T02:04:31;97103.75;;;23.32;84.62
39769;BME280;38939;47.824;14.642;2023-08-24T02:05:33;97106.16;;;23.34;84.46
39769;BME280;38939;47.824;14.642;2023-08-24T02:06:35;97101.59;;;23.34;84.79
39769;BME280;38939;47.824;14.642;2023-08-24T02:07:38;97106.94;;;23.34;84.40
39769;BME280;38939;47.824;14.642;2023-08-24T02:08:40;97106.41;;;23.32;84.71
39769;BME280;38939;47.824;14.642;2023-08-24T02:09:42;97104.06;;;23.31;84.39
39769;BME280;38939;47.824;14.642;2023-08-24T02:10:44;97101.66;;;23.29;84.44
39769;BME280;38939;47.824;14.642;2023-08-24T02:11:46;97099.56;;;23.26;84.68
39769;BME280;38939;47.824;14.642;2023-08-24T02:12:47;97101.69;;;23.24;84.32
39769;BME280;38939;47.824;14.642;2023-08-24T02:13:49;97099.81;;;23.25;84.43
39769;BME280;38939;47.824;14.642;2023-08-24T02:14:51;97091.84;;;23.25;84.56
39769;BME280;38939;47.824;14.642;2023-08-24T02:16:05;97093.72;;;23.24;84.02
39769;BME280;38939;47.824;14.642;2023-08-24T02:17:08;97091.09;;;23.19;84.51
39769;BME280;38939;47.824;14.642;2023-08-24T02:18:10;97094.81;;;23.18;84.54
39769;BME280;38939;47.824;14.642;2023-08-24T02:19:11;97090.06;;;23.15;84.19
39769;BME280;38939;47.824;14.642;2023-08-24T02:20:13;97086.91;;;23.13;84.59
39769;BME280;38939;47.824;14.642;2023-08-24T02:21:15;97094.38;;;23.11;85.04
39769;BME280;38939;47.824;14.642;2023-08-24T02:22:17;97098.09;;;23.10;84.81
39769;BME280;38939;47.824;14.642;2023-08-24T02:23:19;97095.41;;;23.10;84.16
39769;BME280;38939;47.824;14.642;2023-08-24T02:24:21;97096.22;;;23.10;84.04
39769;BME280;38939;47.824;14.642;2023-08-24T02:25:23;97099.16;;;23.09;84.25
39769;BME280;38939;47.824;14.642;2023-08-24T02:26:25;97093.31;;;23.07;84.14
39769;BME280;38939;47.824;14.642;2023-08-24T02:27:27;97092.25;;;23.08;84.06
39769;BME280;38939;47.824;14.642;2023-08-24T02:28:28;97090.09;;;23.10;84.21
39769;BME280;38939;47.824;14.642;2023-08-24T02:29:30;97097.81;;;23.11;84.18
39769;BME280;38939;47.824;14.642;2023-08-24T02:30:32;97102.06;;;23.12;83.91
39769;BME280;38939;47.824;14.642;2023-08-24T02:31:34;97098.59;;;23.12;83.72
39769;BME280;38939;47.824;14.642;2023-08-24T02:32:36;97100.47;;;23.11;83.75
39769;BME280;38939;47.824;14.642;2023-08-24T02:33:38;97098.31;;;23.13;83.78
39769;BME280;38939;47.824;14.642;2023-08-24T02:34:40;97099.13;;;23.14;83.82
39769;BME280;38939;47.824;14.642;2023-08-24T02:35:42;97103.13;;;23.11;84.18
39769;BME280;38939;47.824;14.642;2023-08-24T02:36:46;97098.88;;;23.10;84.18
39769;BME280;38939;47.824;14.642;2023-08-24T02:37:48;97093.84;;;23.09;84.29
39769;BME280;38939;47.824;14.642;2023-08-24T02:38:51;97100.22;;;23.08;84.27
39769;BME280;38939;47.824;14.642;2023-08-24T02:39:53;97098.88;;;23.10;84.36
39769;BME280;38939;47.824;14.642;2023-08-24T02:41:05;97089.03;;;23.11;84.19
39769;BME280;38939;47.824;14.642;2023-08-24T02:42:07;97101.25;;;23.12;84.01
39769;BME280;38939;47.824;14.642;2023-08-24T02:43:09;97092.50;;;23.11;84.24
39769;BME280;38939;47.824;14.642;2023-08-24T02:44:11;97097.28;;;23.09;84.18
39769;BME280;38939;47.824;14.642;2023-08-24T02:45:12;97088.53;;;23.09;84.15
39769;BME280;38939;47.824;14.642;2023-08-24T02:46:14;97097.06;;;23.06;83.99
39769;BME280;38939;47.824;14.642;2023-08-24T02:47:16;97096.78;;;23.07;83.95
39769;BME280;38939;47.824;14.642;2023-08-24T02:48:18;97094.13;;;23.07;84.10
39769;BME280;38939;47.824;14.642;2023-08-24T02:49:20;97088.53;;;23.09;84.10
39769;BME280;38939;47.824;14.642;2023-08-24T02:50:22;97091.19;;;23.09;83.96
39769;BME280;38939;47.824;14.642;2023-08-24T02:51:24;97089.56;;;23.08;83.94
39769;BME280;38939;47.824;14.642;2023-08-24T02:52:26;97096.25;;;23.05;84.05
39769;BME280;38939;47.824;14.642;2023-08-24T02:53:27;97093.59;;;23.05;83.98
39769;BME280;38939;47.824;14.642;2023-08-24T02:54:29;97096.53;;;23.04;83.98
39769;BME280;38939;47.824;14.642;2023-08-24T02:55:32;97093.09;;;23.03;84.36
39769;BME280;38939;47.824;14.642;2023-08-24T02:56:34;97094.66;;;23.04;84.12
39769;BME280;38939;47.824;14.642;2023-08-24T02:57:36;97100.53;;;23.01;84.40
39769;BME280;38939;47.824;14.642;2023-08-24T02:58:38;97092.28;;;22.97;84.62
39769;BME280;38939;47.824;14.642;2023-08-24T02:59:39;97097.88;;;22.96;84.41
39769;BME280;38939;47.824;14.642;2023-08-24T03:00:45;97098.16;;;22.94;84.46
39769;BME280;38939;47.824;14.642;2023-08-24T03:01:48;97097.63;;;22.92;85.10
39769;BME280;38939;47.824;14.642;2023-08-24T03:02:50;97105.63;;;22.92;85.10
39769;BME280;38939;47.824;14.642;2023-08-24T03:03:52;97104.03;;;22.91;84.48
39769;BME280;38939;47.824;14.642;2023-08-24T03:04:54;97099.78;;;22.90;84.29
39769;BME280;38939;47.824;14.642;2023-08-24T03:05:58;97105.09;;;22.90;84.51
39769;BME280;38939;47.824;14.642;2023-08-24T03:07:00;97099.78;;;22.90;84.34
39769;BME280;38939;47.824;14.642;2023-08-24T03:08:03;97103.53;;;22.89;84.35
39769;BME280;38939;47.824;14.642;2023-08-24T03:09:06;97101.38;;;22.91;84.26
39769;BME280;38939;47.824;14.642;2023-08-24T03:10:07;97104.56;;;22.93;83.93
39769;BME280;38939;47.824;14.642;2023-08-24T03:11:09;97111.47;;;22.94;83.96
39769;BME280;38939;47.824;14.642;2023-08-24T03:12:11;97100.28;;;22.92;83.71
39769;BME280;38939;47.824;14.642;2023-08-24T03:13:14;97105.09;;;22.90;84.16
39769;BME280;38939;47.824;14.642;2023-08-24T03:14:16;97105.09;;;22.90;84.13
39769;BME280;38939;47.824;14.642;2023-08-24T03:15:17;97105.09;;;22.90;84.01
39769;BME280;38939;47.824;14.642;2023-08-24T03:16:19;97102.94;;;22.92;83.84
39769;BME280;38939;47.824;14.642;2023-08-24T03:17:22;97106.13;;;22.94;83.34
39769;BME280;38939;47.824;14.642;2023-08-24T03:18:24;97104.00;;;22.96;83.54
39769;BME280;38939;47.824;14.642;2023-08-24T03:19:26;97101.31;;;22.96;83.69
39769;BME280;38939;47.824;14.642;2023-08-24T03:20:28;97103.47;;;22.94;83.92
39769;BME280;38939;47.824;14.642;2023-08-24T03:21:30;97099.75;;;22.95;83.88
39769;BME280;38939;47.824;14.642;2023-08-24T03:22:32;97100.03;;;22.94;84.02
39769;BME280;38939;47.824;14.642;2023-08-24T03:23:34;97108.28;;;22.92;83.86
39769;BME280;38939;47.824;14.642;2023-08-24T03:24:36;97102.94;;;22.92;84.13
39769;BME280;38939;47.824;14.642;2023-08-24T03:25:39;97105.09;;;22.90;84.49
39769;BME280;38939;47.824;14.642;2023-08-24T03:26:41;97099.78;;;22.90;84.31
39769;BME280;38939;47.824;14.642;2023-08-24T03:27:43;97100.59;;;22.91;84.31
39769;BME280;38939;47.824;14.642;2023-08-24T03:28:45;97098.97;;;22.90;84.53
39769;BME280;38939;47.824;14.642;2023-08-24T03:29:47;97097.16;;;22.85;84.89
39769;BME280;38939;47.824;14.642;2023-08-24T03:30:52;97095.56;;;22.84;84.97
39769;BME280;38939;47.824;14.642;2023-08-24T03:31:57;97102.47;;;22.85;85.09
39769;BME280;38939;47.824;14.642;2023-08-24T03:32:59;97099.56;;;22.87;84.86
39769;BME280;38939;47.824;14.642;2023-08-24T03:34:01;97103.28;;;22.86;85.04
39769;BME280;38939;47.824;14.642;2023-08-24T03:35:05;97100.88;;;22.84;85.56
39769;BME280;38939;47.824;14.642;2023-08-24T03:36:07;97103.03;;;22.82;85.37
39769;BME280;38939;47.824;14.642;2023-08-24T03:37:08;97103.53;;;22.84;85.46
39769;BME280;38939;47.824;14.642;2023-08-24T03:38:10;97105.94;;;22.86;85.15
39769;BME280;38939;47.824;14.642;2023-08-24T03:39:13;97105.94;;;22.86;84.91
39769;BME280;38939;47.824;14.642;2023-08-24T03:40:17;97110.75;;;22.84;85.39
39769;BME280;38939;47.824;14.642;2023-08-24T03:41:18;97105.69;;;22.82;85.46
39769;BME280;38939;47.824;14.642;2023-08-24T03:42:20;97105.41;;;22.84;85.38
39769;BME280;38939;47.824;14.642;2023-08-24T03:43:22;97108.88;;;22.84;85.62
39769;BME280;38939;47.824;14.642;2023-08-24T03:44:24;97109.69;;;22.80;85.86
39769;BME280;38939;47.824;14.642;2023-08-24T03:45:26;97109.44;;;22.76;85.88
39769;BME280;38939;47.824;14.642;2023-08-24T03:46:28;97105.47;;;22.73;85.64
39769;BME280;38939;47.824;14.642;2023-08-24T03:47:30;97104.69;;;22.73;85.58
39769;BME280;38939;47.824;14.642;2023-08-24T03:48:32;97102.56;;;22.75;85.58
39769;BME280;38939;47.824;14.642;2023-08-24T03:49:34;97110.53;;;22.75;85.41
39769;BME280;38939;47.824;14.642;2023-08-24T03:50:36;97102.81;;;22.73;85.42
39769;BME280;38939;47.824;14.642;2023-08-24T03:51:38;97110.53;;;22.70;85.17
39769;BME280;38939;47.824;14.642;2023-08-24T03:52:40;97110.00;;;22.73;85.33
39769;BME280;38939;47.824;14.642;2023-08-24T03:53:41;97107.09;;;22.74;84.96
39769;BME280;38939;47.824;14.642;2023-08-24T03:54:43;97110.00;;;22.73;84.75
39769;BME280;38939;47.824;14.642;2023-08-24T03:55:48;97112.94;;;22.71;84.97
39769;BME280;38939;47.824;14.642;2023-08-24T03:56:51;97112.94;;;22.71;85.21
39769;BME280;38939;47.824;14.642;2023-08-24T03:57:53;97111.06;;;22.72;84.88
39769;BME280;38939;47.824;14.642;2023-08-24T03:58:56;97114.53;;;22.72;85.09
39769;BME280;38939;47.824;14.642;2023-08-24T03:59:57;97116.91;;;22.74;84.91
39769;BME280;38939;47.824;14.642;2023-08-24T04:00:59;97113.97;;;22.75;84.73
39769;BME280;38939;47.824;14.642;2023-08-24T04:02:01;97113.97;;;22.75;84.47
39769;BME280;38939;47.824;14.642;2023-08-24T04:03:05;97117.44;;;22.76;84.50
39769;BME280;38939;47.824;14.642;2023-08-24T04:04:06;97114.50;;;22.77;84.42
39769;BME280;38939;47.824;14.642;2023-08-24T04:05:08;97122.22;;;22.79;84.20
39769;BME280;38939;47.824;14.642;2023-08-24T04:06:11;97119.56;;;22.79;84.12
39769;BME280;38939;47.824;14.642;2023-08-24T04:07:12;97122.47;;;22.77;84.06
39769;BME280;38939;47.824;14.642;2023-08-24T04:08:14;97113.72;;;22.72;83.99
39769;BME280;38939;47.824;14.642;2023-08-24T04:09:16;97120.13;;;22.71;83.91
39769;BME280;38939;47.824;14.642;2023-08-24T04:10:18;97123.31;;;22.68;83.90
39769;BME280;38939;47.824;14.642;2023-08-24T04:11:20;97118.56;;;22.65;83.84
39769;BME280;38939;47.824;14.642;2023-08-24T04:12:23;97123.06;;;22.64;83.92
39769;BME280;38939;47.824;14.642;2023-08-24T04:13:25;97122.28;;;22.64;83.92
39769;BME280;38939;47.824;14.642;2023-08-24T04:14:27;97122.28;;;22.64;83.77
39769;BME280;38939;47.824;14.642;2023-08-24T04:15:29;97124.94;;;22.64;83.81
39769;BME280;38939;47.824;14.642;2023-08-24T04:16:31;97123.06;;;22.64;83.99
39769;BME280;38939;47.824;14.642;2023-08-24T04:17:32;97116.97;;;22.64;83.82
39769;BME280;38939;47.824;14.642;2023-08-24T04:18:34;97117.50;;;22.66;83.94
39769;BME280;38939;47.824;14.642;2023-08-24T04:19:37;97125.19;;;22.67;84.05
39769;BME280;38939;47.824;14.642;2023-08-24T04:20:39;97121.75;;;22.67;83.62
39769;BME280;38939;47.824;14.642;2023-08-24T04:21:41;97116.44;;;22.67;83.60
39769;BME280;38939;47.824;14.642;2023-08-24T04:22:43;97118.31;;;22.66;84.14
39769;BME280;38939;47.824;14.642;2023-08-24T04:23:45;97114.81;;;22.66;83.63
39769;BME280;38939;47.824;14.642;2023-08-24T04:24:46;97118.00;;;22.68;83.93
39769;BME280;38939;47.824;14.642;2023-08-24T04:25:48;97115.34;;;22.68;83.65
39769;BME280;38939;47.824;14.642;2023-08-24T04:26:50;97118.81;;;22.68;83.69
39769;BME280;38939;47.824;14.642;2023-08-24T04:27:53;97116.94;;;22.69;84.19
39769;BME280;38939;47.824;14.642;2023-08-24T04:28:55;97115.91;;;22.65;83.96
39769;BME280;38939;47.824;14.642;2023-08-24T04:29:56;97119.09;;;22.62;84.09
39769;BME280;38939;47.824;14.642;2023-08-24T04:30:59;97117.00;;;22.59;84.51
39769;BME280;38939;47.824;14.642;2023-08-24T04:32:01;97118.59;;;22.60;84.40
39769;BME280;38939;47.824;14.642;2023-08-24T04:33:03;97121.00;;;22.56;84.59
39769;BME280;38939;47.824;14.642;2023-08-24T04:34:05;97126.31;;;22.56;84.45
39769;BME280;38939;47.824;14.642;2023-08-24T04:35:07;97116.50;;;22.56;84.31
39769;BME280;38939;47.824;14.642;2023-08-24T04:36:09;97122.84;;;22.55;84.12
39769;BME280;38939;47.824;14.642;2023-08-24T04:37:11;97120.19;;;22.55;84.17
39769;BME280;38939;47.824;14.642;2023-08-24T04:38:14;97118.31;;;22.56;83.92
39769;BME280;38939;47.824;14.642;2023-08-24T04:39:16;97113.31;;;22.54;84.70
39769;BME280;38939;47.824;14.642;2023-08-24T04:40:20;97117.28;;;22.52;84.47
39769;BME280;38939;47.824;14.642;2023-08-24T04:41:22;97127.13;;;22.51;84.67
39769;BME280;38939;47.824;14.642;2023-08-24T04:42:24;97125.25;;;22.52;84.58
39769;BME280;38939;47.824;14.642;2023-08-24T04:43:26;97122.91;;;22.50;84.54
39769;BME280;38939;47.824;14.642;2023-08-24T04:44:28;97126.09;;;22.47;84.03
39769;BME280;38939;47.824;14.642;2023-08-24T04:45:30;97128.47;;;22.49;84.11
39769;BME280;38939;47.824;14.642;2023-08-24T04:46:32;97122.09;;;22.50;84.20
39769;BME280;38939;47.824;14.642;2023-08-24T04:47:34;97126.09;;;22.52;84.15
39769;BME280;38939;47.824;14.642;2023-08-24T04:48:36;97125.25;;;22.52;84.25
39769;BME280;38939;47.824;14.642;2023-08-24T04:49:38;97130.88;;;22.50;84.34
39769;BME280;38939;47.824;14.642;2023-08-24T04:50:41;97131.66;;;22.51;84.06
39769;BME280;38939;47.824;14.642;2023-08-24T04:51:46;97121.81;;;22.51;84.23
39769;BME280;38939;47.824;14.642;2023-08-24T04:52:47;97124.47;;;22.51;84.37
39769;BME280;38939;47.824;14.642;2023-08-24T04:53:49;97132.47;;;22.51;84.14
39769;BME280;38939;47.824;14.642;2023-08-24T04:54:51;97127.94;;;22.52;84.20
39769;BME280;38939;47.824;14.642;2023-08-24T04:55:53;97126.09;;;22.52;84.20
39769;BME280;38939;47.824;14.642;2023-08-24T04:56:55;97128.75;;;22.52;83.92
39769;BME280;38939;47.824;14.642;2023-08-24T04:57:57;97127.13;;;22.51;84.23
39769;BME280;38939;47.824;14.642;2023-08-24T04:58:59;97131.41;;;22.52;84.20
39769;BME280;38939;47.824;14.642;2023-08-24T05:00:02;97128.75;;;22.52;84.05
39769;BME280;38939;47.824;14.642;2023-08-24T05:01:07;97127.66;;;22.53;84.25
39769;BME280;38939;47.824;14.642;2023-08-24T05:02:08;97126.88;;;22.53;84.52
39769;BME280;38939;47.824;14.642;2023-08-24T05:03:10;97126.09;;;22.52;84.23
39769;BME280;38939;47.824;14.642;2023-08-24T05:04:13;97130.84;;;22.55;84.59
39769;BME280;38939;47.824;14.642;2023-08-24T05:05:14;97127.38;;;22.55;84.09
39769;BME280;38939;47.824;14.642;2023-08-24T05:06:16;97135.38;;;22.55;83.99
39769;BME280;38939;47.824;14.642;2023-08-24T05:07:18;97128.44;;;22.54;84.37
39769;BME280;38939;47.824;14.642;2023-08-24T05:08:20;97125.00;;;22.53;84.28
39769;BME280;38939;47.824;14.642;2023-08-24T05:09:22;97129.25;;;22.54;84.55
39769;BME280;38939;47.824;14.642;2023-08-24T05:10:24;97131.09;;;22.54;84.51
39769;BME280;38939;47.824;14.642;2023-08-24T05:11:27;97133.25;;;22.52;84.85
39769;BME280;38939;47.824;14.642;2023-08-24T05:12:30;97130.06;;;22.50;84.79
39769;BME280;38939;47.824;14.642;2023-08-24T05:13:33;97123.16;;;22.49;85.15
39769;BME280;38939;47.824;14.642;2023-08-24T05:14:35;97125.81;;;22.49;84.81
39769;BME280;38939;47.824;14.642;2023-08-24T05:15:37;97122.09;;;22.50;84.95
39769;BME280;38939;47.824;14.642;2023-08-24T05:16:39;97127.41;;;22.50;84.78
39769;BME280;38939;47.824;14.642;2023-08-24T05:17:41;97127.13;;;22.51;84.96
39769;BME280;38939;47.824;14.642;2023-08-24T05:18:42;97125.25;;;22.52;85.20
39769;BME280;38939;47.824;14.642;2023-08-24T05:19:44;97128.22;;;22.50;84.97
39769;BME280;38939;47.824;14.642;2023-08-24T05:20:46;97125.03;;;22.48;84.84
39769;BME280;38939;47.824;14.642;2023-08-24T05:21:48;97127.41;;;22.50;85.45
39769;BME280;38939;47.824;14.642;2023-08-24T05:22:50;97119.72;;;22.48;85.67
39769;BME280;38939;47.824;14.642;2023-08-24T05:23:51;97128.22;;;22.50;85.73
39769;BME280;38939;47.824;14.642;2023-08-24T05:24:54;97127.13;;;22.51;85.97
39769;BME280;38939;47.824;14.642;2023-08-24T05:25:57;97135.13;;;22.51;85.57
39769;BME280;38939;47.824;14.642;2023-08-24T05:27:01;97129.78;;;22.51;85.25
39769;BME280;38939;47.824;14.642;2023-08-24T05:28:03;97123.41;;;22.52;85.04
39769;BME280;38939;47.824;14.642;2023-08-24T05:29:05;97131.41;;;22.52;84.93
39769;BME280;38939;47.824;14.642;2023-08-24T05:30:08;97133.25;;;22.52;85.02
39769;BME280;38939;47.824;14.642;2023-08-24T05:31:10;97128.44;;;22.54;84.64
39769;BME280;38939;47.824;14.642;2023-08-24T05:32:11;97126.59;;;22.54;84.84